createdAt,value
2022-09-05T00:00:29.175Z,73.14
2022-09-05T00:01:29.143Z,72.94
2022-09-05T00:02:29.185Z,72.64
2022-09-05T00:03:31.491Z,73.04
2022-09-05T00:04:29.155Z,72.64
2022-09-05T00:05:30.070Z,71.70
2022-09-05T00:06:29.045Z,72.20
2022-09-05T00:07:37.493Z,71.90
2022-09-05T00:08:30.997Z,72.03
2022-09-05T00:09:28.996Z,73.14
2022-09-05T00:10:36.091Z,72.74
2022-09-05T00:11:40.937Z,72.64
2022-09-05T00:12:29.928Z,72.94
2022-09-05T00:13:28.907Z,72.84
2022-09-05T00:14:36.772Z,72.74
2022-09-05T00:15:29.866Z,72.97
2022-09-05T00:16:28.848Z,72.94
2022-09-05T00:17:45.865Z,72.97
2022-09-05T00:24:17.793Z,72.74
2022-09-05T00:24:18.968Z,72.64
2022-09-05T00:24:22.998Z,72.53
2022-09-05T00:24:26.450Z,72.64
2022-09-05T00:24:30.624Z,72.74
2022-09-05T00:24:35.593Z,72.53
2022-09-05T00:24:50.281Z,72.74
2022-09-05T00:25:32.248Z,72.44
2022-09-05T00:26:29.658Z,72.53
2022-09-05T00:27:29.457Z,72.44
2022-09-05T00:28:28.628Z,73.14
2022-09-05T00:29:46.535Z,73.34
2022-09-05T00:31:51.041Z,73.47
2022-09-05T00:31:53.749Z,73.27
2022-09-05T00:32:29.568Z,73.44
2022-09-05T00:33:28.763Z,73.88
2022-09-05T00:34:36.143Z,73.78
2022-09-05T00:35:29.480Z,73.78
2022-09-05T00:36:28.457Z,73.74
2022-09-05T00:37:28.437Z,73.27
2022-09-05T00:38:32.060Z,73.98
2022-09-05T00:39:28.441Z,73.34
2022-09-05T00:40:28.427Z,73.94
2022-09-05T00:41:28.372Z,73.58
2022-09-05T00:42:28.336Z,73.68
2022-09-05T00:43:28.312Z,73.27
2022-09-05T00:44:28.293Z,73.34
2022-09-05T00:45:28.293Z,73.54
2022-09-05T00:46:28.271Z,73.34
2022-09-05T00:47:28.232Z,73.07
2022-09-05T00:48:28.214Z,73.47
2022-09-05T00:49:28.192Z,73.68
2022-09-05T00:50:28.176Z,73.58
2022-09-05T00:51:29.353Z,73.78
2022-09-05T00:52:29.129Z,73.38
2022-09-05T00:53:28.110Z,74.28
2022-09-05T00:54:40.183Z,73.78
2022-09-05T00:55:29.099Z,73.68
2022-09-05T00:56:28.055Z,73.68
2022-09-05T00:57:28.037Z,73.98
2022-09-05T00:58:30.416Z,73.98
2022-09-05T00:59:28.996Z,73.91
2022-09-05T01:00:27.974Z,73.78
2022-09-05T01:01:28.099Z,73.81
2022-09-05T01:02:28.086Z,74.41
2022-09-05T01:03:27.915Z,74.41
2022-09-05T01:04:27.895Z,74.41
2022-09-05T01:05:27.891Z,73.95
2022-09-05T01:06:28.147Z,74.82
2022-09-05T01:07:27.836Z,74.82
2022-09-05T01:08:27.819Z,75.56
2022-09-05T01:09:27.796Z,75.35
2022-09-05T01:10:27.776Z,75.15
2022-09-05T01:11:27.759Z,75.86
2022-09-05T01:12:27.737Z,75.26
2022-09-05T01:13:27.738Z,75.96
2022-09-05T01:14:27.694Z,75.35
2022-09-05T01:15:28.631Z,75.96
2022-09-05T01:16:28.740Z,75.19
2022-09-05T01:17:27.642Z,75.66
2022-09-05T01:18:27.614Z,74.95
2022-09-05T01:19:27.597Z,75.86
2022-09-05T01:20:29.736Z,75.66
2022-09-05T01:21:28.567Z,76.26
2022-09-05T01:22:27.536Z,76.10
2022-09-05T01:23:27.515Z,75.26
2022-09-05T01:24:27.770Z,75.35
2022-09-05T01:25:27.489Z,75.79
2022-09-05T01:26:27.464Z,75.96
2022-09-05T01:27:33.898Z,75.76
2022-09-05T01:29:16.255Z,76.16
2022-09-05T01:29:28.408Z,75.86
2022-09-05T01:30:31.681Z,74.75
2022-09-05T01:31:27.404Z,74.95
2022-09-05T01:32:27.337Z,75.05
2022-09-05T01:33:27.324Z,75.26
2022-09-05T01:34:31.956Z,75.26
2022-09-05T01:35:28.269Z,74.45
2022-09-05T01:36:27.250Z,75.05
2022-09-05T01:37:34.066Z,75.66
2022-09-05T01:38:28.211Z,75.05
2022-09-05T01:40:12.035Z,75.35
2022-09-05T01:40:27.231Z,76.10
2022-09-05T01:41:27.192Z,76.16
2022-09-05T01:42:27.131Z,74.85
2022-09-05T01:43:27.112Z,75.15
2022-09-05T01:44:27.098Z,74.95
2022-09-05T01:45:29.046Z,74.85
2022-09-05T01:46:28.125Z,75.15
2022-09-05T01:47:30.762Z,75.05
2022-09-05T01:48:28.947Z,74.85
2022-09-05T01:49:27.995Z,74.35
2022-09-05T01:50:26.969Z,74.65
2022-09-05T01:51:29.526Z,73.95
2022-09-05T01:52:26.931Z,74.52
2022-09-05T01:53:26.999Z,73.81
2022-09-05T01:54:27.992Z,73.91
2022-09-05T01:55:26.885Z,74.11
2022-09-05T01:56:26.865Z,74.11
2022-09-05T01:57:26.852Z,74.32
2022-09-05T01:58:26.810Z,74.11
2022-09-05T01:59:26.843Z,73.44
2022-09-05T02:00:26.770Z,74.11
2022-09-05T02:01:32.842Z,73.91
2022-09-05T02:02:26.902Z,74.21
2022-09-05T02:03:26.755Z,74.32
2022-09-05T02:04:26.687Z,74.25
2022-09-05T02:05:48.385Z,74.05
2022-09-05T02:06:27.645Z,73.61
2022-09-05T02:07:30.954Z,73.75
2022-09-05T02:08:27.442Z,73.71
2022-09-05T02:09:26.582Z,74.21
2022-09-05T02:10:26.562Z,73.71
2022-09-05T02:11:35.825Z,73.61
2022-09-05T02:12:26.516Z,73.81
2022-09-05T02:13:26.485Z,73.61
2022-09-05T02:14:34.310Z,74.01
2022-09-05T02:15:27.526Z,73.41
2022-09-05T02:16:26.440Z,73.41
2022-09-05T02:17:49.633Z,73.91
2022-09-05T02:18:27.396Z,73.41
2022-09-05T02:19:26.402Z,73.41
2022-09-05T02:20:26.354Z,73.95
2022-09-05T02:21:26.380Z,73.61
2022-09-05T02:22:26.315Z,73.81
2022-09-05T02:23:41.305Z,73.61
2022-09-05T02:24:27.272Z,73.61
2022-09-05T02:26:01.716Z,73.51
2022-09-05T02:26:27.230Z,73.81
2022-09-05T02:27:51.088Z,73.81
2022-09-05T02:28:27.200Z,73.71
2022-09-05T02:29:29.658Z,73.85
2022-09-05T02:30:27.149Z,73.91
2022-09-05T02:31:26.215Z,73.91
2022-09-05T02:32:26.110Z,73.81
2022-09-05T02:33:26.216Z,73.31
2022-09-05T02:34:27.069Z,73.75
2022-09-05T02:35:26.069Z,73.85
2022-09-05T02:36:26.032Z,73.71
2022-09-05T02:38:43.956Z,73.75
2022-09-05T02:45:00.243Z,73.75
2022-09-05T02:45:00.521Z,74.25
2022-09-05T02:45:09.523Z,73.65
2022-09-05T02:45:14.494Z,73.75
2022-09-05T02:45:16.589Z,73.65
2022-09-05T02:45:16.896Z,73.95
2022-09-05T02:45:19.267Z,73.85
2022-09-05T02:45:27.452Z,73.75
2022-09-05T02:46:27.890Z,74.25
2022-09-05T02:47:25.838Z,74.15
2022-09-05T02:48:25.789Z,73.85
2022-09-05T02:52:21.250Z,73.55
2022-09-05T02:57:21.592Z,74.15
2022-09-05T02:57:25.492Z,74.15
2022-09-05T02:57:27.015Z,74.05
2022-09-05T02:57:30.162Z,73.95
2022-09-05T02:57:38.340Z,74.05
2022-09-05T02:57:42.651Z,73.85
2022-09-05T02:58:04.530Z,73.95
2022-09-05T02:58:04.771Z,74.65
2022-09-05T02:58:27.671Z,73.85
2022-09-05T02:59:36.451Z,73.75
2022-09-05T03:00:26.548Z,73.75
2022-09-05T03:01:25.561Z,73.75
2022-09-05T03:02:27.035Z,73.55
2022-09-05T03:03:25.533Z,73.75
2022-09-05T03:04:25.463Z,73.85
2022-09-05T03:05:25.445Z,74.85
2022-09-05T03:06:34.539Z,73.55
2022-09-05T03:07:26.406Z,73.95
2022-09-05T03:08:25.438Z,74.49
2022-09-05T03:09:25.398Z,74.58
2022-09-05T03:10:28.281Z,74.38
2022-09-05T03:11:26.336Z,74.58
2022-09-05T03:12:28.471Z,74.38
2022-09-05T03:13:25.299Z,74.89
2022-09-05T03:14:25.932Z,75.29
2022-09-05T03:15:25.946Z,74.58
2022-09-05T03:16:26.133Z,74.79
2022-09-05T03:17:25.179Z,74.79
2022-09-05T03:18:25.155Z,74.58
2022-09-05T03:19:25.161Z,75.19
2022-09-05T03:20:25.114Z,75.09
2022-09-05T03:21:25.105Z,74.89
2022-09-05T03:22:27.047Z,74.89
2022-09-05T03:23:25.096Z,74.58
2022-09-05T03:24:26.029Z,74.58
2022-09-05T03:25:25.025Z,74.58
2022-09-05T03:26:25.013Z,74.79
2022-09-05T03:27:29.384Z,74.69
2022-09-05T03:28:26.110Z,74.79
2022-09-05T03:29:24.931Z,74.69
2022-09-05T03:30:24.898Z,74.29
2022-09-05T03:31:25.606Z,74.89
2022-09-05T03:32:24.855Z,74.58
2022-09-05T03:33:24.868Z,74.38
2022-09-05T03:34:24.811Z,75.90
2022-09-05T03:35:24.805Z,74.93
2022-09-05T03:36:24.765Z,75.59
2022-09-05T03:37:24.764Z,75.19
2022-09-05T03:38:24.747Z,74.99
2022-09-05T03:39:24.755Z,75.33
2022-09-05T03:40:24.674Z,74.82
2022-09-05T03:41:30.265Z,75.43
2022-09-05T03:42:27.899Z,74.93
2022-09-05T03:43:25.650Z,75.63
2022-09-05T03:44:24.592Z,75.39
2022-09-05T03:45:36.349Z,75.23
2022-09-05T03:46:24.602Z,75.83
2022-09-05T03:47:24.559Z,75.02
2022-09-05T03:48:28.717Z,76.54
2022-09-05T03:52:01.831Z,76.03
2022-09-05T03:52:38.098Z,75.23
2022-09-05T03:57:15.328Z,75.83
2022-09-05T03:57:15.450Z,75.63
2022-09-05T03:57:17.485Z,75.73
2022-09-05T03:57:19.159Z,76.03
2022-09-05T03:57:19.943Z,75.83
2022-09-05T03:57:24.168Z,76.03
2022-09-05T03:57:37.064Z,75.56
2022-09-05T03:58:41.973Z,76.14
2022-09-05T03:59:26.286Z,75.56
2022-09-05T04:00:24.249Z,76.27
2022-09-05T04:02:19.658Z,76.03
2022-09-05T04:06:47.220Z,76.27
2022-09-05T04:08:11.159Z,76.77
2022-09-05T04:08:13.808Z,76.37
2022-09-05T04:08:20.564Z,76.97
2022-09-05T04:08:28.964Z,76.57
2022-09-05T04:08:29.604Z,76.77
2022-09-05T04:08:36.984Z,76.77
2022-09-05T04:09:49.481Z,76.67
2022-09-05T04:10:25.180Z,76.37
2022-09-05T04:11:24.043Z,76.27
2022-09-05T04:12:23.998Z,76.77
2022-09-05T04:13:24.561Z,77.58
2022-09-05T04:14:24.532Z,76.77
2022-09-05T04:15:23.939Z,76.87
2022-09-05T04:16:23.983Z,75.87
2022-09-05T04:17:23.910Z,76.67
2022-09-05T04:18:25.671Z,76.47
2022-09-05T04:19:23.847Z,77.08
2022-09-05T04:20:23.823Z,76.91
2022-09-05T04:21:24.834Z,76.47
2022-09-05T04:22:23.777Z,76.57
2022-09-05T04:23:23.811Z,76.71
2022-09-05T04:24:24.731Z,76.57
2022-09-05T04:25:23.750Z,76.57
2022-09-05T04:26:23.718Z,76.47
2022-09-05T04:27:27.758Z,77.08
2022-09-05T04:28:58.727Z,76.87
2022-09-05T04:29:23.652Z,76.97
2022-09-05T04:30:38.187Z,76.77
2022-09-05T04:31:24.622Z,77.01
2022-09-05T04:32:24.606Z,76.77
2022-09-05T04:33:36.023Z,76.97
2022-09-05T04:34:23.531Z,77.31
2022-09-05T04:35:23.503Z,77.21
2022-09-05T04:36:23.484Z,77.51
2022-09-05T04:37:23.468Z,77.42
2022-09-05T04:38:23.440Z,78.22
2022-09-05T04:39:23.461Z,77.82
2022-09-05T04:40:24.394Z,77.72
2022-09-05T04:41:39.926Z,77.72
2022-09-05T04:42:23.354Z,77.31
2022-09-05T04:43:23.330Z,77.08
2022-09-05T04:44:23.309Z,76.61
2022-09-05T04:45:28.686Z,76.97
2022-09-05T04:46:23.337Z,77.28
2022-09-05T04:47:24.244Z,76.97
2022-09-05T04:48:24.402Z,76.97
2022-09-05T04:49:25.201Z,77.38
2022-09-05T04:50:23.673Z,77.28
2022-09-05T04:51:23.164Z,77.28
2022-09-05T04:52:31.744Z,77.01
2022-09-05T04:53:24.112Z,77.48
2022-09-05T04:54:23.096Z,77.08
2022-09-05T04:55:23.076Z,76.77
2022-09-05T04:56:23.052Z,77.17
2022-09-05T04:57:23.027Z,76.77
2022-09-05T04:58:23.852Z,76.37
2022-09-05T05:01:24.308Z,76.57
2022-09-05T05:06:01.606Z,75.83
2022-09-05T05:06:03.275Z,75.70
2022-09-05T05:06:05.503Z,75.73
2022-09-05T05:06:08.725Z,73.71
2022-09-05T05:06:11.905Z,74.65
2022-09-05T05:06:14.658Z,74.41
2022-09-05T05:06:43.910Z,73.91
2022-09-05T05:07:24.869Z,73.11
2022-09-05T05:08:29.149Z,72.77
2022-09-05T05:09:24.781Z,73.07
2022-09-05T05:13:42.340Z,72.44
2022-09-05T05:16:48.011Z,71.40
2022-09-05T05:18:01.987Z,69.73
2022-09-05T05:18:04.092Z,70.06
2022-09-05T05:18:06.879Z,66.72
2022-09-05T05:18:11.659Z,69.09
2022-09-05T05:18:13.270Z,67.16
2022-09-05T05:18:14.835Z,68.32
2022-09-05T05:18:49.183Z,64.99
2022-09-05T05:19:23.722Z,64.13
2022-09-05T05:20:42.199Z,62.10
2022-09-05T05:21:23.547Z,62.18
2022-09-05T05:22:22.524Z,61.44
2022-09-05T05:23:22.513Z,61.22
2022-09-05T05:24:22.487Z,60.02
2022-09-05T05:25:23.469Z,59.69
2022-09-05T05:26:22.450Z,59.23
2022-09-05T05:27:22.431Z,58.01
2022-09-05T05:28:23.939Z,56.07
2022-09-05T05:29:22.397Z,56.12
2022-09-05T05:30:22.380Z,55.89
2022-09-05T05:31:23.395Z,54.47
2022-09-05T05:32:31.615Z,54.25
2022-09-05T05:33:23.322Z,53.33
2022-09-05T05:34:24.634Z,52.61
2022-09-05T05:35:22.288Z,53.01
2022-09-05T05:36:22.272Z,52.07
2022-09-05T05:37:22.250Z,51.05
2022-09-05T05:38:23.003Z,49.91
2022-09-05T05:39:23.244Z,49.49
2022-09-05T05:40:22.194Z,49.27
2022-09-05T05:41:22.173Z,48.19
2022-09-05T05:42:22.147Z,49.20
2022-09-05T05:43:23.132Z,50.34
2022-09-05T05:44:22.120Z,50.06
2022-09-05T05:45:22.102Z,49.44
2022-09-05T05:46:22.132Z,49.42
2022-09-05T05:47:28.267Z,48.39
2022-09-05T05:48:23.118Z,47.94
2022-09-05T05:49:22.032Z,46.74
2022-09-05T05:50:22.013Z,46.40
2022-09-05T05:51:47.604Z,45.68
2022-09-05T05:52:22.976Z,44.70
2022-09-05T05:53:29.019Z,44.29
2022-09-05T05:54:22.944Z,44.36
2022-09-05T05:55:52.261Z,44.76
2022-09-05T05:56:22.915Z,44.72
2022-09-05T05:57:21.927Z,46.54
2022-09-05T05:58:21.944Z,47.50
2022-09-05T05:59:24.793Z,48.03
2022-09-05T06:00:27.509Z,49.64
2022-09-05T06:01:38.450Z,49.96
2022-09-05T06:02:22.903Z,51.10
2022-09-05T06:03:25.787Z,51.72
2022-09-05T06:04:22.778Z,52.34
2022-09-05T06:05:21.756Z,53.26
2022-09-05T06:06:21.743Z,53.58
2022-09-05T06:07:22.418Z,54.30
2022-09-05T06:10:33.778Z,54.33
2022-09-05T06:13:24.201Z,55.25
2022-09-05T06:14:49.991Z,55.57
2022-09-05T06:14:55.645Z,56.07
2022-09-05T06:14:56.249Z,56.79
2022-09-05T06:15:00.313Z,57.12
2022-09-05T06:15:02.502Z,56.70
2022-09-05T06:15:23.736Z,58.64
2022-09-05T06:16:22.599Z,59.17
2022-09-05T06:17:28.052Z,59.69
2022-09-05T06:18:22.532Z,59.92
2022-09-05T06:19:21.513Z,61.55
2022-09-05T06:22:05.921Z,62.24
2022-09-05T06:22:10.457Z,61.77
2022-09-05T06:22:22.518Z,61.94
2022-09-05T06:23:38.519Z,62.18
2022-09-05T06:24:22.421Z,62.53
2022-09-05T06:25:21.405Z,65.26
2022-09-05T06:26:21.388Z,64.46
2022-09-05T06:27:21.378Z,64.86
2022-09-05T06:28:22.039Z,64.46
2022-09-05T06:29:21.324Z,64.56
2022-09-05T06:30:21.309Z,64.76
2022-09-05T06:31:30.166Z,64.23
2022-09-05T06:32:22.275Z,64.63
2022-09-05T06:33:21.419Z,64.30
2022-09-05T06:34:35.129Z,64.10
2022-09-05T06:35:23.034Z,63.83
2022-09-05T06:36:21.201Z,65.03
2022-09-05T06:37:21.180Z,65.23
2022-09-05T06:38:22.030Z,65.49
2022-09-05T06:39:21.175Z,65.99
2022-09-05T06:40:21.125Z,66.39
2022-09-05T06:41:21.104Z,66.66
2022-09-05T06:42:39.157Z,67.55
2022-09-05T06:43:23.103Z,68.16
2022-09-05T06:44:21.050Z,67.59
2022-09-05T06:45:28.447Z,67.19
2022-09-05T06:46:52.874Z,67.05
2022-09-05T06:47:24.313Z,67.02
2022-09-05T06:48:27.775Z,66.82
2022-09-05T06:49:32.212Z,67.02
2022-09-05T06:50:27.567Z,66.63
2022-09-05T06:51:21.923Z,66.42
2022-09-05T06:52:29.392Z,66.82
2022-09-05T06:53:21.888Z,66.19
2022-09-05T06:54:20.870Z,66.09
2022-09-05T06:55:21.422Z,66.19
2022-09-05T06:56:25.890Z,65.89
2022-09-05T06:57:21.811Z,66.06
2022-09-05T06:58:20.823Z,65.66
2022-09-05T06:59:20.776Z,66.43
2022-09-05T07:00:22.583Z,64.93
2022-09-05T07:01:20.828Z,65.83
2022-09-05T07:02:28.608Z,66.00
2022-09-05T07:03:24.363Z,65.13
2022-09-05T07:05:23.133Z,66.03
2022-09-05T07:05:37.797Z,66.73
2022-09-05T07:06:21.638Z,66.16
2022-09-05T07:07:21.630Z,65.83
2022-09-05T07:08:36.362Z,65.83
2022-09-05T07:09:20.592Z,66.03
2022-09-05T07:10:37.903Z,65.23
2022-09-05T07:11:22.560Z,65.03
2022-09-05T07:12:20.538Z,64.23
2022-09-05T07:13:20.573Z,64.17
2022-09-05T07:14:20.503Z,62.12
2022-09-05T07:15:20.628Z,61.49
2022-09-05T07:16:36.982Z,60.76
2022-09-05T07:17:22.413Z,59.48
2022-09-05T07:18:21.019Z,58.40
2022-09-05T07:19:20.409Z,55.44
2022-09-05T07:20:22.068Z,53.45
2022-09-05T07:21:26.074Z,51.79
2022-09-05T07:22:46.155Z,52.44
2022-09-05T07:24:05.506Z,52.29
2022-09-05T07:24:53.433Z,54.47
2022-09-05T07:25:22.324Z,56.44
2022-09-05T07:26:42.066Z,56.54
2022-09-05T07:27:25.480Z,55.27
2022-09-05T07:28:27.078Z,54.35
2022-09-05T07:29:22.225Z,53.75
2022-09-05T07:30:20.218Z,56.32
2022-09-05T07:31:27.431Z,56.54
2022-09-05T07:32:24.438Z,57.26
2022-09-05T07:33:22.154Z,57.83
2022-09-05T07:34:21.131Z,54.87
2022-09-05T07:35:21.118Z,56.12
2022-09-05T07:36:20.094Z,54.00
2022-09-05T07:37:20.082Z,54.10
2022-09-05T07:38:20.064Z,52.26
2022-09-05T07:39:28.671Z,51.65
2022-09-05T07:40:26.221Z,52.44
2022-09-05T07:41:20.013Z,52.26
2022-09-05T07:42:19.992Z,52.56
2022-09-05T07:43:19.972Z,52.26
2022-09-05T07:44:22.115Z,52.71
2022-09-05T07:45:21.098Z,54.89
2022-09-05T07:46:19.949Z,52.84
2022-09-05T07:47:19.904Z,53.11
2022-09-05T07:48:19.883Z,54.75
2022-09-05T07:49:19.866Z,54.32
2022-09-05T07:54:42.390Z,53.88
2022-09-05T07:56:46.654Z,52.69
2022-09-05T07:56:46.723Z,53.16
2022-09-05T07:56:59.648Z,52.86
2022-09-05T07:57:01.477Z,52.34
2022-09-05T07:57:06.511Z,52.66
2022-09-05T07:57:08.068Z,53.16
2022-09-05T07:57:30.257Z,51.50
2022-09-05T07:58:21.710Z,50.51
2022-09-05T07:59:19.700Z,50.48
2022-09-05T08:00:27.184Z,50.63
2022-09-05T08:01:20.696Z,47.90
2022-09-05T08:02:19.638Z,49.65
2022-09-05T08:03:19.666Z,50.68
2022-09-05T08:04:19.598Z,50.78
2022-09-05T08:05:23.619Z,49.08
2022-09-05T08:06:37.545Z,50.88
2022-09-05T08:07:50.111Z,50.12
2022-09-05T08:08:20.528Z,49.57
2022-09-05T08:10:06.220Z,46.62
2022-09-05T08:10:21.489Z,44.30
2022-09-05T08:11:23.938Z,43.90
2022-09-05T08:12:27.714Z,44.32
2022-09-05T08:13:24.400Z,44.62
2022-09-05T08:14:43.608Z,43.41
2022-09-05T08:15:20.403Z,45.16
2022-09-05T08:16:19.746Z,42.91
2022-09-05T08:17:19.372Z,42.82
2022-09-05T08:18:19.356Z,42.86
2022-09-05T08:19:19.339Z,43.27
2022-09-05T08:20:19.314Z,43.98
2022-09-05T08:21:19.290Z,44.85
2022-09-05T08:22:21.281Z,45.15
2022-09-05T08:23:19.264Z,45.86
2022-09-05T08:24:19.252Z,46.06
2022-09-05T08:25:19.320Z,46.59
2022-09-05T08:26:19.215Z,46.37
2022-09-05T08:27:19.193Z,46.18
2022-09-05T08:28:19.193Z,46.69
2022-09-05T08:29:20.158Z,47.31
2022-09-05T08:30:25.635Z,46.40
2022-09-05T08:31:20.148Z,46.03
2022-09-05T08:32:19.107Z,44.32
2022-09-05T08:33:20.014Z,43.94
2022-09-05T08:34:23.228Z,43.27
2022-09-05T08:35:19.077Z,44.07
2022-09-05T08:36:19.041Z,46.08
2022-09-05T08:37:21.164Z,46.37
2022-09-05T08:38:20.030Z,46.10
2022-09-05T08:39:18.989Z,46.18
2022-09-05T08:40:19.006Z,46.18
2022-09-05T08:41:18.956Z,45.88
2022-09-05T08:42:19.942Z,44.80
2022-09-05T08:46:06.224Z,45.47
2022-09-05T08:46:39.704Z,44.98
2022-09-05T08:46:41.510Z,45.07
2022-09-05T08:46:47.207Z,45.56
2022-09-05T08:47:19.901Z,44.98
2022-09-05T08:48:18.836Z,45.05
2022-09-05T08:49:37.959Z,46.08
2022-09-05T08:50:20.806Z,46.28
2022-09-05T08:51:19.791Z,45.96
2022-09-05T08:52:18.772Z,44.88
2022-09-05T08:53:45.413Z,45.96
2022-09-05T08:54:19.736Z,45.78
2022-09-05T08:55:19.399Z,46.40
2022-09-05T08:56:20.989Z,47.33
2022-09-05T08:57:18.687Z,46.84
2022-09-05T08:58:18.669Z,47.38
2022-09-05T08:59:31.780Z,47.38
2022-09-05T09:00:24.483Z,47.65
2022-09-05T09:01:19.624Z,46.72
2022-09-05T09:02:45.244Z,46.42
2022-09-05T09:03:20.452Z,46.59
2022-09-05T09:04:37.175Z,46.45
2022-09-05T09:05:19.558Z,46.06
2022-09-05T09:06:18.630Z,45.81
2022-09-05T09:07:47.146Z,46.20
2022-09-05T09:08:21.915Z,46.10
2022-09-05T09:09:18.493Z,46.10
2022-09-05T09:10:25.958Z,45.81
2022-09-05T09:11:19.460Z,46.30
2022-09-05T09:12:18.439Z,46.74
2022-09-05T09:13:18.425Z,48.36
2022-09-05T09:14:30.914Z,47.25
2022-09-05T09:15:20.017Z,47.35
2022-09-05T09:16:18.422Z,47.53
2022-09-05T09:17:18.355Z,47.33
2022-09-05T09:18:18.896Z,47.03
2022-09-05T09:19:18.320Z,47.13
2022-09-05T09:20:19.303Z,47.38
2022-09-05T09:21:18.897Z,46.40
2022-09-05T09:22:18.268Z,46.64
2022-09-05T09:23:32.006Z,47.55
2022-09-05T09:24:19.232Z,47.85
2022-09-05T09:25:20.154Z,47.55
2022-09-05T09:26:20.199Z,46.81
2022-09-05T09:27:27.263Z,46.22
2022-09-05T09:28:50.322Z,46.22
2022-09-05T09:29:19.147Z,44.80
2022-09-05T09:30:18.131Z,44.58
2022-09-05T09:31:18.944Z,46.08
2022-09-05T09:32:18.105Z,45.90
2022-09-05T09:33:18.075Z,46.62
2022-09-05T09:34:18.061Z,47.03
2022-09-05T09:35:18.894Z,47.67
2022-09-05T09:36:18.029Z,47.65
2022-09-05T09:37:18.005Z,47.77
2022-09-05T09:38:18.008Z,48.11
2022-09-05T09:39:33.060Z,49.22
2022-09-05T09:40:18.000Z,49.74
2022-09-05T09:41:18.894Z,49.64
2022-09-05T09:42:33.741Z,49.25
2022-09-05T09:43:18.904Z,49.94
2022-09-05T09:44:17.895Z,49.64
2022-09-05T09:45:22.987Z,49.25
2022-09-05T09:46:18.958Z,50.04
2022-09-05T09:47:17.847Z,49.40
2022-09-05T09:48:17.824Z,49.30
2022-09-05T09:49:23.149Z,47.10
2022-09-05T09:50:18.784Z,47.77
2022-09-05T09:51:18.506Z,47.89
2022-09-05T09:52:19.509Z,49.13
2022-09-05T09:53:18.728Z,49.72
2022-09-05T09:54:18.391Z,49.25
2022-09-05T09:55:21.418Z,49.64
2022-09-05T09:56:17.686Z,49.64
2022-09-05T09:57:18.661Z,50.26
2022-09-05T09:58:17.655Z,49.66
2022-09-05T09:59:17.629Z,49.94
2022-09-05T10:00:17.611Z,49.27
2022-09-05T10:01:35.084Z,49.57
2022-09-05T10:03:09.678Z,49.47
2022-09-05T10:06:36.559Z,48.95
2022-09-05T10:10:32.724Z,49.35
2022-09-05T10:10:44.274Z,49.25
2022-09-05T10:10:47.755Z,46.58
2022-09-05T10:10:48.192Z,48.65
2022-09-05T10:10:50.601Z,46.66
2022-09-05T10:10:51.317Z,46.78
2022-09-05T10:10:57.451Z,46.48
2022-09-05T10:11:52.410Z,44.87
2022-09-05T10:12:19.502Z,48.93
2022-09-05T10:13:17.383Z,46.66
2022-09-05T10:14:30.756Z,46.26
2022-09-05T10:15:30.438Z,47.56
2022-09-05T10:16:18.392Z,48.28
2022-09-05T10:17:17.310Z,47.39
2022-09-05T10:18:17.288Z,47.37
2022-09-05T10:19:18.278Z,46.36
2022-09-05T10:20:17.261Z,46.73
2022-09-05T10:21:17.843Z,47.25
2022-09-05T10:22:37.314Z,48.14
2022-09-05T10:23:19.205Z,46.55
2022-09-05T10:24:18.007Z,47.52
2022-09-05T10:25:19.085Z,47.42
2022-09-05T10:26:17.138Z,46.53
2022-09-05T10:27:17.133Z,46.63
2022-09-05T10:28:17.115Z,47.07
2022-09-05T10:29:37.810Z,47.89
2022-09-05T10:30:19.758Z,47.99
2022-09-05T10:32:27.580Z,47.91
2022-09-05T10:35:07.766Z,46.33
2022-09-05T10:35:13.082Z,46.47
2022-09-05T10:35:17.244Z,47.26
2022-09-05T10:35:22.262Z,47.06
2022-09-05T10:36:18.996Z,47.80
2022-09-05T10:37:18.267Z,47.53
2022-09-05T10:38:16.941Z,50.06
2022-09-05T10:39:16.916Z,47.74
2022-09-05T10:40:16.901Z,46.42
2022-09-05T10:41:21.340Z,47.02
2022-09-05T10:42:18.401Z,47.53
2022-09-05T10:43:16.848Z,47.04
2022-09-05T10:44:16.831Z,46.38
2022-09-05T10:45:16.813Z,44.80
2022-09-05T10:46:39.776Z,44.50
2022-09-05T10:47:18.835Z,44.90
2022-09-05T10:48:17.762Z,44.90
2022-09-05T10:49:16.760Z,45.29
2022-09-05T10:50:16.726Z,45.09
2022-09-05T10:51:27.318Z,43.88
2022-09-05T10:52:19.264Z,44.58
2022-09-05T10:53:16.674Z,45.34
2022-09-05T10:54:16.659Z,46.47
2022-09-05T10:55:16.679Z,46.19
2022-09-05T10:56:16.620Z,47.19
2022-09-05T10:57:16.620Z,46.45
2022-09-05T10:58:16.600Z,46.60
2022-09-05T11:01:31.067Z,46.94
2022-09-05T11:02:20.740Z,46.82
2022-09-05T11:02:26.314Z,46.40
2022-09-05T11:02:29.326Z,46.48
2022-09-05T11:03:22.594Z,44.87
2022-09-05T11:04:17.537Z,44.75
2022-09-05T11:05:17.511Z,44.38
2022-09-05T11:06:16.452Z,43.88
2022-09-05T11:07:16.435Z,44.01
2022-09-05T11:08:16.420Z,44.92
2022-09-05T11:09:16.782Z,46.55
2022-09-05T11:10:18.379Z,46.27
2022-09-05T11:11:28.254Z,46.77
2022-09-05T11:12:17.346Z,46.79
2022-09-05T11:13:16.331Z,47.26
2022-09-05T11:14:26.651Z,46.55
2022-09-05T11:15:17.296Z,47.12
2022-09-05T11:16:16.331Z,44.72
2022-09-05T11:17:16.262Z,45.09
2022-09-05T11:18:16.242Z,44.38
2022-09-05T11:19:16.225Z,45.07
2022-09-05T11:20:20.749Z,44.31
2022-09-05T11:21:16.191Z,44.28
2022-09-05T11:22:23.600Z,44.38
2022-09-05T11:23:17.152Z,43.88
2022-09-05T11:24:16.143Z,43.57
2022-09-05T11:25:16.120Z,43.55
2022-09-05T11:26:16.102Z,44.51
2022-09-05T11:27:24.275Z,44.42
2022-09-05T11:28:17.063Z,44.61
2022-09-05T11:29:16.045Z,43.01
2022-09-05T11:30:29.153Z,43.09
2022-09-05T11:31:16.051Z,42.68
2022-09-05T11:36:03.941Z,42.28
2022-09-05T11:36:18.875Z,41.78
2022-09-05T11:39:51.198Z,42.46
2022-09-05T11:39:54.949Z,42.76
2022-09-05T11:39:55.253Z,41.86
2022-09-05T11:40:07.349Z,43.29
2022-09-05T11:40:09.610Z,43.05
2022-09-05T11:40:10.548Z,41.49
2022-09-05T11:40:31.080Z,42.78
2022-09-05T11:41:17.536Z,43.51
2022-09-05T11:42:15.872Z,44.23
2022-09-05T11:43:15.802Z,45.21
2022-09-05T11:44:25.111Z,43.95
2022-09-05T11:45:16.759Z,45.14
2022-09-05T11:46:15.779Z,44.78
2022-09-05T11:47:29.807Z,45.18
2022-09-05T11:48:15.708Z,46.59
2022-09-05T11:49:15.687Z,47.09
2022-09-05T11:50:15.668Z,46.37
2022-09-05T11:51:15.650Z,46.35
2022-09-05T11:52:15.633Z,44.64
2022-09-05T11:53:15.619Z,45.14
2022-09-05T11:54:15.625Z,44.32
2022-09-05T11:55:20.977Z,44.01
2022-09-05T11:56:16.565Z,43.79
2022-09-05T11:57:32.213Z,43.69
2022-09-05T11:58:43.475Z,44.38
2022-09-05T11:59:33.290Z,43.07
2022-09-05T12:00:33.851Z,42.96
2022-09-05T12:01:42.919Z,42.72
2022-09-05T12:02:23.284Z,41.31
2022-09-05T12:03:57.681Z,41.30
2022-09-05T12:04:16.450Z,39.42
2022-09-05T12:05:49.440Z,38.56
2022-09-05T12:06:16.431Z,40.55
2022-09-05T12:08:16.353Z,40.45
2022-09-05T12:09:20.296Z,40.05
2022-09-05T12:10:45.883Z,39.36
2022-09-05T12:11:16.308Z,39.73
2022-09-05T12:12:19.321Z,39.03
2022-09-05T12:13:16.271Z,40.13
2022-09-05T12:14:20.793Z,41.31
2022-09-05T12:15:15.251Z,41.57
2022-09-05T12:16:15.235Z,42.36
2022-09-05T12:17:17.034Z,41.75
2022-09-05T12:18:19.622Z,41.36
2022-09-05T12:19:19.284Z,42.05
2022-09-05T12:20:17.175Z,42.83
2022-09-05T12:21:19.612Z,41.46
2022-09-05T12:22:16.323Z,42.44
2022-09-05T12:23:27.632Z,42.46
2022-09-05T12:25:25.718Z,41.95
2022-09-05T12:25:26.049Z,41.57
2022-09-05T12:27:40.300Z,42.66
2022-09-05T12:27:41.241Z,42.66
2022-09-05T12:29:28.006Z,42.19
2022-09-05T12:29:33.045Z,42.60
2022-09-05T12:30:15.970Z,42.80
2022-09-05T12:32:36.445Z,42.70
2022-09-05T12:33:58.361Z,41.28
2022-09-05T12:36:04.504Z,41.75
2022-09-05T12:36:07.239Z,41.75
2022-09-05T12:36:10.873Z,41.67
2022-09-05T12:40:25.476Z,41.91
2022-09-05T12:40:45.050Z,42.08
2022-09-05T12:40:58.061Z,43.41
2022-09-05T12:41:35.258Z,42.70
2022-09-05T12:41:42.466Z,42.92
2022-09-05T12:41:42.949Z,41.87
2022-09-05T12:42:09.813Z,40.25
2022-09-05T12:42:22.850Z,43.15
2022-09-05T12:44:20.917Z,42.68
2022-09-05T12:44:41.861Z,42.19
2022-09-05T12:45:14.897Z,42.29
2022-09-05T12:46:23.709Z,42.07
2022-09-05T12:47:16.914Z,41.95
2022-09-05T12:48:14.667Z,41.75
2022-09-05T12:49:14.651Z,41.16
2022-09-05T12:50:15.740Z,41.95
2022-09-05T12:51:44.872Z,41.65
2022-09-05T12:52:15.595Z,42.07